Time;durP1;ratioP1;P1;durP2;ratioP2;P2;SDS_P1;SDS_P2;PMS_P1;PMS_P2;Temp;Humidity;BMP_temperature;BMP_pressure;BME280_temperature;BME280_humidity;BME280_pressure;Samples;Min_cycle;Max_cycle;Signal;HPM_P1;HPM_P2
2022/01/11 00:01:01;;;;;;;9.20;4.23;;;;;;;8.26;30.40;99759.69;5088349;28;20048;-73
2022/01/11 00:03:27;;;;;;;6.73;3.57;;;;;;;8.02;30.31;99762.72;5087912;28;20044;-73
2022/01/11 00:06:16;;;;;;;8.87;4.07;;;;;;;7.96;30.28;99765.09;5070790;28;20089;-73
2022/01/11 00:09:38;;;;;;;8.03;3.27;;;;;;;8.85;29.88;99767.38;5057617;28;20044;-73
2022/01/11 00:12:07;;;;;;;6.40;3.03;;;;;;;8.30;30.27;99761.09;5071676;28;20400;-73
2022/01/11 00:14:32;;;;;;;7.70;3.40;;;;;;;8.12;30.35;99768.00;5055407;28;20087;-72
2022/01/11 00:16:59;;;;;;;5.10;3.67;;;;;;;8.01;30.41;99765.53;5056294;28;20141;-74
2022/01/11 00:19:28;;;;;;;6.67;3.37;;;;;;;8.16;30.53;99762.28;5073180;28;20043;-73
2022/01/11 00:21:54;;;;;;;9.73;4.40;;;;;;;8.17;30.38;99785.16;5073348;28;20134;-74
2022/01/11 00:24:30;;;;;;;9.03;4.10;;;;;;;8.09;30.83;99785.00;5073063;28;20050;-72
2022/01/11 00:27:14;;;;;;;7.23;3.93;;;;;;;8.86;29.93;99774.34;5090229;28;20051;-73
2022/01/11 00:29:42;;;;;;;7.37;3.83;;;;;;;8.25;30.61;99779.19;5073329;28;20036;-72
2022/01/11 00:32:17;;;;;;;7.83;3.57;;;;;;;8.20;30.57;99791.97;5089778;28;20054;-72
2022/01/11 00:34:51;;;;;;;16.47;5.03;;;;;;;8.03;30.43;99759.09;5073288;28;20048;-73
2022/01/11 00:37:21;;;;;;;7.47;3.83;;;;;;;8.51;29.97;99759.09;5040951;28;20115;-73
2022/01/11 00:39:49;;;;;;;5.37;3.77;;;;;;;8.13;30.19;99794.31;5056244;28;20031;-73
2022/01/11 00:42:16;;;;;;;4.93;2.80;;;;;;;8.59;30.07;99798.94;5089794;28;20050;-73
2022/01/11 00:44:42;;;;;;;7.43;3.63;;;;;;;7.94;30.06;99761.75;5072942;28;20575;-73
2022/01/11 00:47:10;;;;;;;7.47;3.37;;;;;;;8.39;29.92;99813.97;5090835;28;20040;-72
2022/01/11 00:49:38;;;;;;;10.30;4.33;;;;;;;8.20;29.51;99810.47;5073091;28;20040;-74
2022/01/11 00:52:05;;;;;;;5.10;3.43;;;;;;;8.18;30.01;99802.69;5073185;28;20036;-74
2022/01/11 00:54:30;;;;;;;7.03;2.97;;;;;;;8.14;30.49;99801.31;5055739;28;20077;-73
2022/01/11 00:56:56;;;;;;;9.40;3.80;;;;;;;8.11;30.17;99812.16;5072302;28;20172;-73
2022/01/11 00:59:22;;;;;;;5.07;2.53;;;;;;;8.08;30.54;99827.47;5072215;28;20051;-72
2022/01/11 01:01:48;;;;;;;5.33;2.63;;;;;;;8.12;30.31;99829.69;5055606;28;20070;-73
2022/01/11 01:04:14;;;;;;;12.70;4.33;;;;;;;7.95;30.01;99830.34;5088872;28;20047;-72
2022/01/11 01:06:41;;;;;;;4.70;2.97;;;;;;;7.99;30.15;99842.34;5054022;28;20032;-70
2022/01/11 01:09:10;;;;;;;6.28;3.33;;;;;;;7.97;29.93;99846.94;5072527;28;20044;-71
2022/01/11 01:11:43;;;;;;;7.00;2.55;;;;;;;8.28;30.06;99845.06;5073094;28;20056;-71
2022/01/11 01:14:10;;;;;;;9.87;4.43;;;;;;;8.28;29.82;99850.34;5072661;28;20055;-70
2022/01/11 01:16:42;;;;;;;9.30;4.10;;;;;;;8.03;30.10;99851.69;5072982;28;20082;-73
2022/01/11 01:19:28;;;;;;;5.83;2.83;;;;;;;7.92;30.00;99850.94;5074633;28;20042;-74
2022/01/11 01:21:55;;;;;;;6.87;3.70;;;;;;;7.97;29.85;99854.88;5072624;28;20040;-72
2022/01/11 01:24:22;;;;;;;5.93;3.17;;;;;;;7.68;30.23;99806.38;5055805;28;20052;-73
2022/01/11 01:26:48;;;;;;;10.07;3.93;;;;;;;7.87;30.31;99854.00;5089119;28;20048;-72
2022/01/11 01:29:14;;;;;;;5.47;3.30;;;;;;;8.16;30.02;99868.09;5089341;28;20044;-73
2022/01/11 01:31:40;;;;;;;14.50;3.70;;;;;;;7.91;29.96;99859.84;5072504;28;20082;-71
2022/01/11 01:34:06;;;;;;;9.77;3.80;;;;;;;7.84;30.16;99837.59;5072277;28;20052;-72
2022/01/11 01:36:32;;;;;;;9.70;5.47;;;;;;;7.84;30.10;99862.19;5072227;28;20460;-72
2022/01/11 01:39:20;;;;;;;7.50;4.07;;;;;;;8.54;29.82;99884.06;5055443;28;20056;-72
2022/01/11 01:41:49;;;;;;;11.77;4.53;;;;;;;8.01;30.02;99880.06;5072116;28;20158;-73
2022/01/11 01:44:15;;;;;;;8.77;3.53;;;;;;;7.73;30.40;99883.47;5088898;28;20415;-72
2022/01/11 01:46:41;;;;;;;14.27;4.03;;;;;;;8.01;30.40;99880.06;5090272;28;20051;-73
2022/01/11 01:49:09;;;;;;;8.50;3.47;;;;;;;7.78;30.70;99880.44;5039216;28;20571;-73
2022/01/11 01:55:06;;;;;;;6.10;3.30;;;;;;;8.13;30.36;99883.44;5072363;28;20097;-73
2022/01/11 01:57:32;;;;;;;9.13;4.20;;;;;;;7.69;30.42;99870.63;5055597;28;20287;-73
2022/01/11 01:59:58;;;;;;;8.27;4.50;;;;;;;7.47;30.48;99860.28;5071646;28;20040;-73
2022/01/11 02:02:23;;;;;;;7.67;3.87;;;;;;;7.58;30.26;99882.16;5055084;28;20039;-73
2022/01/11 02:04:50;;;;;;;9.10;4.00;;;;;;;7.35;30.58;99838.38;5054550;28;20055;-73
2022/01/11 02:07:16;;;;;;;7.73;3.57;;;;;;;7.65;30.54;99880.66;5054522;28;20040;-73
2022/01/11 02:09:42;;;;;;;5.63;3.17;;;;;;;7.66;30.49;99877.03;5053929;28;20163;-74
2022/01/11 02:12:08;;;;;;;5.00;3.10;;;;;;;7.71;30.27;99866.91;5054736;28;20071;-73
2022/01/11 02:14:36;;;;;;;7.13;3.70;;;;;;;7.61;30.26;99873.94;5089086;28;20503;-75
2022/01/11 02:17:05;;;;;;;7.57;3.67;;;;;;;7.69;30.75;99876.78;5059706;28;20044;-74
2022/01/11 02:19:31;;;;;;;13.10;3.37;;;;;;;7.61;30.11;99881.88;5043977;28;20110;-75
2022/01/11 02:21:58;;;;;;;9.90;3.77;;;;;;;7.63;30.30;99872.03;5042713;28;20040;-73
2022/01/11 02:24:27;;;;;;;6.47;3.27;;;;;;;7.63;30.35;99873.81;5075669;28;20412;-73
2022/01/11 02:26:53;;;;;;;4.50;2.67;;;;;;;7.59;30.20;99883.00;5092203;28;20048;-72
2022/01/11 02:29:19;;;;;;;6.13;3.00;;;;;;;7.63;30.30;99881.75;5058809;28;20070;-73
2022/01/11 02:31:45;;;;;;;4.63;3.13;;;;;;;7.57;30.17;99884.94;5075212;28;20419;-72
2022/01/11 02:34:11;;;;;;;8.00;3.57;;;;;;;7.50;30.29;99886.44;5058891;28;20040;-72
2022/01/11 02:36:40;;;;;;;4.20;3.10;;;;;;;7.36;30.32;99858.56;5075911;28;20526;-72
2022/01/11 02:39:31;;;;;;;9.40;3.53;;;;;;;7.59;30.01;99896.22;5052436;28;20171;-72
2022/01/11 02:42:04;;;;;;;8.67;3.63;;;;;;;7.72;29.87;99896.84;5059187;28;20036;-72
2022/01/11 02:44:36;;;;;;;5.93;2.83;;;;;;;7.63;30.36;99897.59;5076216;28;20047;-72
2022/01/11 02:47:04;;;;;;;4.43;2.80;;;;;;;7.86;29.83;99905.22;5058701;28;20043;-72
2022/01/11 02:49:34;;;;;;;6.90;3.42;;;;;;;7.56;29.63;99907.06;5042404;28;20040;-72
2022/01/11 02:52:08;;;;;;;3.80;2.67;;;;;;;7.47;29.87;99906.06;5075430;28;20130;-72
2022/01/11 02:54:35;;;;;;;4.03;2.50;;;;;;;7.34;29.73;99881.63;5041806;28;20047;-72
2022/01/11 02:57:08;;;;;;;6.07;3.83;;;;;;;7.39;29.62;99899.75;5075890;28;20048;-71
2022/01/11 02:59:35;;;;;;;8.23;3.00;;;;;;;7.28;30.12;99892.72;5058184;28;20304;-72
2022/01/11 03:02:00;;;;;;;5.03;3.20;;;;;;;7.22;29.81;99909.09;5074099;28;20476;-73
2022/01/11 03:04:31;;;;;;;4.87;3.00;;;;;;;7.86;30.11;99899.09;5057695;28;20109;-72
2022/01/11 03:06:57;;;;;;;6.70;3.67;;;;;;;7.32;29.97;99915.28;5091629;28;20051;-70
2022/01/11 03:09:29;;;;;;;4.23;2.80;;;;;;;7.29;29.71;99912.06;5059369;28;20100;-71
2022/01/11 03:11:55;;;;;;;4.47;2.77;;;;;;;7.17;29.74;99913.94;5075328;28;20040;-72
2022/01/11 03:14:22;;;;;;;6.33;3.13;;;;;;;7.17;29.38;99918.38;5057689;28;20543;-71
2022/01/11 03:16:50;;;;;;;5.80;2.90;;;;;;;7.13;29.42;99928.38;5074160;28;20040;-71
2022/01/11 03:19:16;;;;;;;5.17;2.90;;;;;;;7.06;29.55;99929.03;5091071;28;20403;-72
2022/01/11 03:21:42;;;;;;;5.57;3.37;;;;;;;7.08;29.30;99927.06;5041307;28;20412;-72
2022/01/11 03:24:08;;;;;;;4.00;2.80;;;;;;;7.06;29.69;99923.75;5074259;28;20044;-72
2022/01/11 03:26:33;;;;;;;5.17;2.63;;;;;;;7.14;29.97;99931.84;5057046;28;20047;-72
2022/01/11 03:29:00;;;;;;;4.43;2.97;;;;;;;7.10;29.66;99923.34;5090793;28;20048;-72
2022/01/11 03:31:26;;;;;;;3.83;2.67;;;;;;;7.10;29.84;99933.91;5057441;28;20163;-73
2022/01/11 03:33:52;;;;;;;4.87;2.53;;;;;;;7.10;29.64;99930.44;5057315;28;20047;-73
2022/01/11 03:36:18;;;;;;;3.83;2.50;;;;;;;7.13;29.58;99938.09;5056335;28;20069;-71
2022/01/11 03:38:44;;;;;;;6.00;2.83;;;;;;;6.84;29.22;99912.31;5074375;28;20044;-74
2022/01/11 03:41:13;;;;;;;3.60;2.20;;;;;;;7.14;29.06;99951.16;5074250;28;20043;-72
2022/01/11 03:44:16;;;;;;;3.83;2.57;;;;;;;7.78;28.75;99946.53;5072518;28;20044;-72
2022/01/11 03:46:42;;;;;;;3.97;2.20;;;;;;;6.78;29.38;99904.09;5073211;28;20043;-71
2022/01/11 03:49:09;;;;;;;3.37;2.40;;;;;;;6.98;29.59;99963.16;5057052;28;20410;-72
2022/01/11 03:51:38;;;;;;;3.90;2.40;;;;;;;6.88;28.85;99957.78;5056397;28;20047;-73
2022/01/11 03:54:14;;;;;;;3.50;2.07;;;;;;;6.79;28.85;99950.63;5074135;28;20067;-72
2022/01/11 03:56:56;;;;;;;2.93;2.23;;;;;;;6.83;28.68;99971.38;5062079;28;20047;-72
2022/01/11 03:59:27;;;;;;;4.35;2.67;;;;;;;6.63;28.71;99974.81;5073888;28;20048;-72
2022/01/11 04:01:53;;;;;;;4.83;2.77;;;;;;;6.38;29.03;99959.28;5056352;28;20109;-72
2022/01/11 04:04:19;;;;;;;4.60;2.63;;;;;;;6.59;29.25;99977.81;5056728;28;20127;-71
2022/01/11 04:06:45;;;;;;;3.77;2.23;;;;;;;6.51;29.08;99961.75;5073337;28;20500;-73
2022/01/11 04:09:12;;;;;;;2.47;2.13;;;;;;;6.64;29.11;99971.19;5072986;28;20040;-72
2022/01/11 04:11:39;;;;;;;5.20;2.70;;;;;;;6.54;28.84;99974.72;5056202;28;20067;-73
2022/01/11 04:14:05;;;;;;;6.50;3.23;;;;;;;6.33;28.78;99989.63;5072545;28;20064;-73
2022/01/11 04:16:31;;;;;;;3.97;2.77;;;;;;;6.34;28.87;99989.50;5072877;28;20492;-72
2022/01/11 04:18:59;;;;;;;2.30;1.93;;;;;;;6.50;29.24;99986.47;5106415;28;20055;-71
2022/01/11 04:21:26;;;;;;;4.60;2.20;;;;;;;6.53;29.74;99992.31;5056217;28;20134;-72
2022/01/11 04:23:55;;;;;;;3.70;2.23;;;;;;;6.44;29.00;99990.44;5073121;28;20046;-72
2022/01/11 04:26:22;;;;;;;3.60;2.47;;;;;;;6.33;28.90;99982.56;5073094;28;20047;-71
2022/01/11 04:28:49;;;;;;;6.03;2.33;;;;;;;6.36;28.93;99992.03;5072613;28;20096;-71
2022/01/11 04:31:15;;;;;;;2.00;1.83;;;;;;;6.46;29.14;99993.81;5072905;28;20048;-70
2022/01/11 04:33:43;;;;;;;3.00;2.10;;;;;;;6.38;28.62;99996.22;5039493;28;20036;-72
2022/01/11 04:36:11;;;;;;;3.60;2.30;;;;;;;6.52;28.80;99997.72;5055816;28;20126;-70
2022/01/11 04:38:38;;;;;;;2.67;2.20;;;;;;;6.77;28.99;100015.91;5055417;28;20518;-71
2022/01/11 04:41:04;;;;;;;2.90;2.30;;;;;;;6.36;28.68;100023.69;5089156;28;20044;-72
2022/01/11 04:43:36;;;;;;;;;;;;;;;7.23;28.03;100018.22;5072693;28;20040;-72
2022/01/11 04:46:02;;;;;;;2.17;1.80;;;;;;;6.29;28.76;100012.78;5055475;28;20272;-72
2022/01/11 04:48:32;;;;;;;2.97;2.17;;;;;;;6.41;29.00;100024.97;5072706;28;20055;-71
2022/01/11 04:51:01;;;;;;;4.70;2.47;;;;;;;6.61;28.80;100024.22;5062234;28;20054;-71
2022/01/11 04:53:27;;;;;;;2.97;2.17;;;;;;;6.27;29.06;100034.97;5072046;28;20131;-71
2022/01/11 04:55:54;;;;;;;2.87;2.10;;;;;;;6.39;28.56;100015.53;5039315;28;20052;-70
2022/01/11 04:58:20;;;;;;;6.23;2.93;;;;;;;5.95;28.45;100023.47;5089471;28;20439;-70
2022/01/11 05:00:46;;;;;;;4.10;2.77;;;;;;;5.79;29.31;100026.44;5088805;28;20507;-70
2022/01/11 05:03:12;;;;;;;5.27;2.87;;;;;;;5.60;28.55;99997.16;5082082;28;20058;-71
2022/01/11 05:05:38;;;;;;;3.13;2.17;;;;;;;5.76;29.08;100000.31;5086879;28;20206;-70
2022/01/11 05:08:05;;;;;;;2.83;2.03;;;;;;;5.90;28.87;100038.81;5070369;28;20503;-68
2022/01/11 05:10:32;;;;;;;3.77;2.40;;;;;;;5.67;29.10;100002.81;5086628;28;20421;-69
2022/01/11 05:12:59;;;;;;;3.90;2.17;;;;;;;5.89;28.85;100039.78;5035584;28;20048;-71
2022/01/11 05:15:25;;;;;;;3.30;2.40;;;;;;;5.80;28.70;100045.69;5085899;28;20079;-71
2022/01/11 05:17:53;;;;;;;3.03;1.97;;;;;;;5.84;29.23;100047.19;5054289;28;20103;-70
2022/01/11 05:20:19;;;;;;;2.40;1.70;;;;;;;5.89;29.10;100048.50;5071256;28;20356;-70
2022/01/11 05:22:45;;;;;;;3.20;2.10;;;;;;;5.91;28.87;100040.47;5087482;28;20040;-70
2022/01/11 05:25:14;;;;;;;3.00;2.30;;;;;;;6.14;28.97;100050.06;5070265;28;20052;-70
2022/01/11 05:27:40;;;;;;;2.97;2.00;;;;;;;6.08;29.20;100059.31;5070570;28;20139;-70
2022/01/11 05:30:08;;;;;;;3.73;2.27;;;;;;;6.15;29.11;100068.41;5070820;28;20036;-70
2022/01/11 05:32:35;;;;;;;2.27;1.93;;;;;;;5.75;28.59;100063.69;5054216;28;20047;-70
2022/01/11 05:35:03;;;;;;;2.77;1.77;;;;;;;6.09;28.85;100065.44;5054518;28;20044;-69
2022/01/11 05:37:31;;;;;;;3.00;1.87;;;;;;;5.75;29.12;100080.31;5071332;28;20075;-70
2022/01/11 05:39:58;;;;;;;1.63;1.43;;;;;;;5.78;29.25;100076.63;5037782;28;20094;-70
2022/01/11 05:42:25;;;;;;;3.13;2.27;;;;;;;6.10;28.62;100082.91;5070753;28;20445;-69
2022/01/11 05:44:51;;;;;;;3.23;2.17;;;;;;;5.72;28.70;100091.09;5088051;28;20126;-70
2022/01/11 05:47:17;;;;;;;3.43;2.30;;;;;;;5.50;28.63;100066.47;5037773;28;20036;-69
2022/01/11 05:49:43;;;;;;;2.67;2.00;;;;;;;5.61;28.59;100085.81;5071036;28;20109;-69
2022/01/11 05:52:09;;;;;;;3.90;2.17;;;;;;;5.52;28.68;100085.66;5092132;28;20047;-69
2022/01/11 05:54:35;;;;;;;2.37;1.93;;;;;;;5.55;29.50;100083.59;5074679;28;20040;-69
2022/01/11 05:57:01;;;;;;;3.20;1.90;;;;;;;5.75;29.33;100098.75;5091519;28;20500;-69
2022/01/11 05:59:27;;;;;;;3.37;2.00;;;;;;;5.69;28.85;100098.41;5074685;28;20071;-70
2022/01/11 06:01:53;;;;;;;3.17;2.00;;;;;;;5.74;29.08;100106.78;5074626;28;20083;-70
2022/01/11 06:04:19;;;;;;;3.27;1.97;;;;;;;5.67;28.54;100108.22;5075320;28;20118;-69
2022/01/11 06:06:46;;;;;;;2.93;2.17;;;;;;;5.75;29.03;100116.38;5074679;28;20105;-69
2022/01/11 06:09:11;;;;;;;2.30;2.10;;;;;;;5.67;28.51;100114.34;5092372;28;20499;-69
2022/01/11 06:11:37;;;;;;;2.13;1.90;;;;;;;5.78;28.90;100116.97;5074310;28;20040;-69
2022/01/11 06:14:03;;;;;;;3.33;2.13;;;;;;;5.61;28.66;100117.44;5091360;28;20511;-69
2022/01/11 06:16:29;;;;;;;2.53;2.03;;;;;;;5.74;28.77;100120.81;5091488;28;20051;-70
2022/01/11 06:18:55;;;;;;;2.90;2.00;;;;;;;5.59;28.77;100111.44;5091279;28;20482;-70
2022/01/11 06:21:26;;;;;;;2.35;1.75;;;;;;;5.87;28.22;100132.16;5074850;28;20044;-70
2022/01/11 06:23:52;;;;;;;1.90;1.67;;;;;;;5.56;28.43;100119.56;5090844;28;20044;-70
2022/01/11 06:26:18;;;;;;;2.07;1.80;;;;;;;5.49;27.99;100135.94;5057479;28;20093;-69
2022/01/11 06:28:44;;;;;;;6.57;2.53;;;;;;;5.31;27.78;100132.88;5090378;28;20048;-68
2022/01/11 06:31:10;;;;;;;3.50;2.03;;;;;;;5.39;28.26;100135.78;5074463;28;20097;-68
2022/01/11 06:33:38;;;;;;;3.60;1.80;;;;;;;5.41;28.43;100119.84;5107771;28;20393;-69
2022/01/11 06:36:09;;;;;;;2.30;1.90;;;;;;;5.35;28.55;100141.38;5090793;28;20061;-69
2022/01/11 06:38:41;;;;;;;1.97;1.77;;;;;;;5.92;27.82;100145.78;5057889;28;20043;-68
2022/01/11 06:41:09;;;;;;;2.63;1.70;;;;;;;5.66;28.08;100154.78;5074263;28;20119;-69
2022/01/11 06:43:37;;;;;;;4.33;2.50;;;;;;;5.51;28.08;100155.09;5073758;28;20108;-69
2022/01/11 06:46:03;;;;;;;2.60;1.80;;;;;;;5.52;28.19;100154.97;5074017;28;20070;-68
2022/01/11 06:48:34;;;;;;;3.20;2.10;;;;;;;5.91;28.18;100157.31;5090843;28;20044;-69
2022/01/11 06:51:00;;;;;;;2.07;1.67;;;;;;;5.48;27.90;100148.25;5040709;28;20418;-69
2022/01/11 06:53:37;;;;;;;4.63;2.27;;;;;;;5.36;27.96;100154.44;5074525;28;20063;-69
2022/01/11 06:56:03;;;;;;;4.23;2.73;;;;;;;5.25;27.77;100141.22;5091527;28;20050;-68
2022/01/11 06:58:31;;;;;;;4.90;2.73;;;;;;;5.31;27.60;100160.97;5073615;28;20043;-68
2022/01/11 07:00:57;;;;;;;3.73;2.20;;;;;;;5.23;27.77;100151.88;5073259;28;20101;-68
2022/01/11 07:03:23;;;;;;;3.63;2.60;;;;;;;5.24;28.14;100160.59;5073649;28;20449;-70
2022/01/11 07:06:01;;;;;;;5.93;2.80;;;;;;;5.18;27.30;100168.97;5058711;28;20063;-68
2022/01/11 07:08:27;;;;;;;5.17;2.60;;;;;;;5.12;27.29;100182.53;5090535;28;20048;-69
2022/01/11 07:10:54;;;;;;;4.87;2.33;;;;;;;5.04;28.09;100179.63;5057039;28;20040;-69
2022/01/11 07:13:21;;;;;;;4.50;2.50;;;;;;;4.93;27.34;100147.97;5090031;28;20117;-69
2022/01/11 07:15:47;;;;;;;4.23;2.83;;;;;;;5.05;27.60;100171.63;5056227;28;20431;-69
2022/01/11 07:18:15;;;;;;;3.00;2.47;;;;;;;4.61;27.43;100126.56;5057072;28;20127;-69
2022/01/11 07:20:44;;;;;;;7.87;3.40;;;;;;;5.03;27.12;100201.63;5056431;28;20052;-69
2022/01/11 07:23:17;;;;;;;6.20;2.83;;;;;;;4.91;27.41;100197.25;5105814;28;20459;-70
2022/01/11 07:25:43;;;;;;;4.47;2.83;;;;;;;4.90;27.62;100200.84;5093185;28;20062;-70
2022/01/11 07:28:14;;;;;;;4.00;2.53;;;;;;;4.73;27.90;100180.97;5093285;28;20092;-71
2022/01/11 07:30:39;;;;;;;4.73;2.70;;;;;;;4.90;27.71;100206.09;5110138;28;20067;-69
2022/01/11 07:33:06;;;;;;;2.40;2.10;;;;;;;4.91;27.33;100213.88;5059824;28;20547;-69
2022/01/11 07:35:33;;;;;;;4.27;2.80;;;;;;;5.03;27.33;100206.88;5093201;28;20035;-69
2022/01/11 07:38:00;;;;;;;5.97;2.20;;;;;;;4.87;27.39;100217.66;5055573;28;20055;-70
2022/01/11 07:40:26;;;;;;;2.43;2.20;;;;;;;4.88;27.34;100213.25;5059502;28;20043;-70
2022/01/11 07:42:56;;;;;;;3.38;2.20;;;;;;;4.78;27.23;100209.59;5077701;28;20511;-69
2022/01/11 07:45:48;;;;;;;5.13;2.67;;;;;;;4.90;27.25;100216.63;5087160;28;20504;-69
2022/01/11 07:48:17;;;;;;;2.17;1.70;;;;;;;5.02;27.39;100229.75;5063791;28;20407;-68
2022/01/11 07:50:50;;;;;;;4.77;2.77;;;;;;;4.89;26.85;100226.31;5080030;28;20473;-69
2022/01/11 07:53:16;;;;;;;2.33;1.77;;;;;;;4.82;27.08;100196.13;5085788;28;20093;-70
2022/01/11 07:55:47;;;;;;;3.87;2.53;;;;;;;4.68;26.86;100190.13;5056762;28;20044;-70
2022/01/11 07:58:16;;;;;;;4.80;2.33;;;;;;;4.84;26.85;100209.16;5089036;28;20452;-69
2022/01/11 08:00:42;;;;;;;2.10;1.83;;;;;;;4.97;27.03;100233.66;5068802;28;20389;-71
2022/01/11 08:03:12;;;;;;;3.70;2.40;;;;;;;5.00;26.56;100231.66;5056490;28;20047;-70
2022/01/11 08:05:50;;;;;;;2.97;2.40;;;;;;;4.99;25.99;100240.50;5073712;28;20036;-70
2022/01/11 08:08:17;;;;;;;2.27;2.00;;;;;;;4.75;26.05;100215.06;5078128;28;20416;-70
2022/01/11 08:10:42;;;;;;;2.87;2.27;;;;;;;5.00;26.21;100238.69;5071835;28;20048;-70
2022/01/11 08:13:10;;;;;;;5.27;3.00;;;;;;;4.93;25.13;100167.25;5070573;28;20071;-70
2022/01/11 08:15:38;;;;;;;5.30;1.97;;;;;;;5.54;24.39;100240.00;5057668;28;20044;-70
2022/01/11 08:18:05;;;;;;;3.63;2.27;;;;;;;5.89;24.42;100229.56;5088747;28;20571;-70
2022/01/11 08:20:32;;;;;;;4.70;1.97;;;;;;;5.56;24.10;100218.81;5071577;28;20079;-70
2022/01/11 08:22:59;;;;;;;5.00;2.37;;;;;;;5.36;24.51;100193.94;5092749;28;20051;-70
2022/01/11 08:25:25;;;;;;;2.90;2.30;;;;;;;5.34;24.32;100235.34;5071455;28;20090;-69
2022/01/11 08:27:54;;;;;;;2.90;2.07;;;;;;;5.01;24.11;100224.59;5055393;28;20036;-69
2022/01/11 08:30:20;;;;;;;3.50;2.27;;;;;;;4.93;24.28;100250.63;5049740;28;20059;-68
2022/01/11 08:32:51;;;;;;;2.45;1.88;;;;;;;4.90;24.70;100237.69;5080358;28;20055;-69
2022/01/11 08:35:18;;;;;;;3.27;2.10;;;;;;;4.86;24.49;100244.94;5071954;28;20050;-68
2022/01/11 08:37:45;;;;;;;2.13;1.73;;;;;;;4.75;25.01;100225.59;5077466;28;20084;-69
2022/01/11 08:40:16;;;;;;;2.30;2.10;;;;;;;5.15;25.08;100243.72;5099169;28;20483;-68
2022/01/11 08:42:49;;;;;;;10.37;2.37;;;;;;;5.11;25.27;100246.69;5066193;28;20457;-69
2022/01/11 08:45:22;;;;;;;2.17;1.98;;;;;;;5.50;24.67;100240.34;5086378;28;20488;-68
2022/01/11 08:47:55;;;;;;;3.53;2.23;;;;;;;5.01;24.55;100235.97;5073212;28;20043;-70
2022/01/11 08:50:21;;;;;;;3.53;2.07;;;;;;;5.21;24.96;100234.56;5055255;28;20051;-69
2022/01/11 08:52:49;;;;;;;2.43;2.10;;;;;;;5.39;24.45;100212.16;5107309;28;20039;-68
2022/01/11 08:55:20;;;;;;;2.97;2.17;;;;;;;5.90;24.57;100233.88;5071917;28;20072;-68
2022/01/11 08:57:46;;;;;;;2.83;1.90;;;;;;;6.16;24.10;100249.44;5107014;28;20043;-67
2022/01/11 09:00:18;;;;;;;2.60;1.87;;;;;;;6.57;24.12;100226.00;5073094;28;20048;-69
2022/01/11 09:02:50;;;;;;;1.97;1.60;;;;;;;6.92;24.12;100243.53;5071591;28;20036;-68
2022/01/11 09:05:18;;;;;;;3.30;1.83;;;;;;;7.02;24.33;100240.06;5039523;28;20032;-69
2022/01/11 09:07:52;;;;;;;1.90;1.80;;;;;;;7.41;23.70;100249.25;5054746;28;20043;-70
2022/01/11 09:10:21;;;;;;;3.33;2.10;;;;;;;7.15;23.35;100205.59;5058013;28;20081;-70
2022/01/11 09:12:47;;;;;;;3.20;2.10;;;;;;;7.42;23.40;100232.44;5069327;28;20040;-70
2022/01/11 09:15:14;;;;;;;2.03;1.73;;;;;;;7.56;23.68;100248.00;5088745;28;20449;-71
2022/01/11 09:17:40;;;;;;;2.30;2.10;;;;;;;7.34;22.88;100253.34;5088194;28;20035;-73
2022/01/11 09:20:08;;;;;;;2.40;2.13;;;;;;;7.48;23.11;100253.06;5106347;28;20805;-69
2022/01/11 09:22:35;;;;;;;2.27;2.07;;;;;;;7.00;24.30;100225.28;5106655;28;20043;-71
2022/01/11 09:25:02;;;;;;;4.23;2.17;;;;;;;7.32;23.99;100242.88;5072433;28;20632;-69
2022/01/11 09:27:35;;;;;;;2.40;2.00;;;;;;;7.11;23.85;100249.03;5090295;28;20027;-70
2022/01/11 09:30:08;;;;;;;3.03;2.20;;;;;;;7.18;24.20;100171.81;5089594;28;20053;-71
2022/01/11 09:32:37;;;;;;;1.77;1.63;;;;;;;7.35;23.76;100245.28;5089981;28;20491;-71
2022/01/11 09:35:05;;;;;;;3.17;2.13;;;;;;;7.36;23.37;100241.69;5106244;28;20096;-73
2022/01/11 09:37:33;;;;;;;3.17;2.05;;;;;;;7.04;24.51;100253.13;5087683;28;20510;-69
2022/01/11 09:39:59;;;;;;;4.53;2.43;;;;;;;7.05;23.52;100255.66;5090529;28;20047;-71
2022/01/11 09:42:28;;;;;;;3.00;2.20;;;;;;;7.11;24.19;100249.88;5071537;28;20766;-71
2022/01/11 09:44:58;;;;;;;4.43;2.57;;;;;;;7.28;23.20;100253.81;5067396;28;20522;-71
2022/01/11 09:47:26;;;;;;;4.03;2.67;;;;;;;7.51;22.79;100269.53;5087850;28;20119;-69
2022/01/11 09:49:53;;;;;;;2.53;2.33;;;;;;;7.42;22.67;100264.13;5071397;28;20044;-70
2022/01/11 09:52:20;;;;;;;5.40;2.63;;;;;;;7.44;22.75;100257.75;5051584;28;20100;-70
2022/01/11 09:54:48;;;;;;;3.03;2.10;;;;;;;7.63;23.53;100250.03;5069428;28;20563;-70
2022/01/11 09:57:16;;;;;;;4.25;2.00;;;;;;;7.01;23.72;100254.22;5089980;28;20046;-71
2022/01/11 09:59:43;;;;;;;4.93;2.23;;;;;;;6.93;23.19;100268.00;5084906;28;20127;-71
2022/01/11 10:02:27;;;;;;;6.23;2.40;;;;;;;6.71;23.57;100283.00;5104414;28;20044;-70
2022/01/11 10:05:09;;;;;;;3.03;2.20;;;;;;;7.06;24.37;100280.28;5106461;28;20123;-70
2022/01/11 10:07:42;;;;;;;3.20;2.27;;;;;;;6.96;23.99;100281.94;5087447;28;20065;-71
2022/01/11 10:10:20;;;;;;;2.33;2.10;;;;;;;7.20;24.77;100283.50;5073562;28;20077;-71
2022/01/11 10:12:58;;;;;;;3.43;2.30;;;;;;;6.99;24.15;100250.00;5073447;28;20058;-71
2022/01/11 10:15:30;;;;;;;2.90;2.20;;;;;;;6.77;24.14;100283.38;5102181;28;20543;-70
2022/01/11 10:18:03;;;;;;;4.60;2.53;;;;;;;6.82;24.75;100286.50;5055862;28;20124;-69
2022/01/11 10:20:30;;;;;;;2.90;2.20;;;;;;;6.28;24.87;100279.31;5052545;28;20087;-71
2022/01/11 10:23:32;;;;;;;3.03;2.00;;;;;;;6.47;23.94;100256.69;5076466;28;20509;-70
2022/01/11 10:25:57;;;;;;;2.40;1.87;;;;;;;5.91;24.80;100286.47;5070553;28;20047;-70
2022/01/11 10:28:35;;;;;;;4.80;2.53;;;;;;;6.45;24.34;100289.44;5070573;28;20048;-72
2022/01/11 10:31:02;;;;;;;2.13;1.93;;;;;;;5.65;24.97;100278.75;5075445;28;20593;-68
2022/01/11 10:33:30;;;;;;;4.10;2.33;;;;;;;5.54;24.75;100282.16;5071082;28;20048;-72
2022/01/11 10:35:57;;;;;;;3.73;2.40;;;;;;;5.44;24.83;100283.81;5086894;28;20040;-69
2022/01/11 10:38:31;;;;;;;2.17;1.77;;;;;;;5.32;25.03;100276.75;5073645;28;20378;-69
2022/01/11 10:41:05;;;;;;;2.57;2.10;;;;;;;5.38;25.84;100292.13;5075073;28;20040;-70
2022/01/11 10:43:42;;;;;;;2.97;2.07;;;;;;;6.05;24.95;100299.50;5073594;28;20089;-69
2022/01/11 10:46:13;;;;;;;2.17;1.77;;;;;;;5.42;25.54;100293.59;5090839;28;20065;-68
2022/01/11 10:48:43;;;;;;;6.00;1.95;;;;;;;5.45;25.17;100272.28;5073400;28;20249;-68
2022/01/11 10:51:14;;;;;;;4.40;2.20;;;;;;;5.83;24.50;100288.84;5090899;28;20219;-70
2022/01/11 10:53:48;;;;;;;6.17;2.20;;;;;;;5.20;24.36;100293.41;5089894;28;20055;-70
2022/01/11 10:56:16;;;;;;;2.27;1.77;;;;;;;5.11;24.49;100299.34;5057733;28;20553;-72
2022/01/11 10:59:10;;;;;;;3.17;2.30;;;;;;;5.81;24.06;100292.50;5057116;28;20121;-71
2022/01/11 11:01:43;;;;;;;2.10;1.63;;;;;;;5.03;24.45;100293.75;5066071;28;20487;-71
2022/01/11 11:04:34;;;;;;;2.67;2.10;;;;;;;5.75;24.47;100298.22;5085356;28;20051;-71
2022/01/11 11:07:12;;;;;;;4.40;2.73;;;;;;;5.61;24.69;100309.78;5074681;28;20495;-70
2022/01/11 11:09:48;;;;;;;2.73;1.87;;;;;;;5.65;24.59;100291.94;5089988;28;20040;-71
2022/01/11 11:12:20;;;;;;;2.80;1.87;;;;;;;5.47;25.17;100265.13;5108467;28;20031;-69
2022/01/11 11:15:03;;;;;;;3.13;2.30;;;;;;;5.26;24.73;100276.38;5075028;28;20048;-69
2022/01/11 11:17:39;;;;;;;3.30;1.90;;;;;;;5.51;25.00;100286.81;5091890;28;20570;-67
2022/01/11 11:20:21;;;;;;;2.00;1.67;;;;;;;5.51;24.83;100300.84;5095066;28;20336;-70
2022/01/11 11:22:46;;;;;;;;;;;;;;;5.81;24.04;100303.88;5093358;28;20058;-68
2022/01/11 11:25:12;;;;;;;3.97;1.93;;;;;;;4.92;25.16;100320.00;5076242;28;20010;-66
2022/01/11 11:27:38;;;;;;;4.20;2.70;;;;;;;4.62;24.15;100312.41;5108397;28;20039;-70
2022/01/11 11:30:04;;;;;;;4.10;2.37;;;;;;;4.65;24.58;100316.63;5111198;28;20039;-67
2022/01/11 11:32:31;;;;;;;3.20;2.03;;;;;;;4.65;24.46;100320.09;5093198;28;20039;-71
2022/01/11 11:34:57;;;;;;;2.23;1.83;;;;;;;4.35;25.31;100313.44;5106049;28;20047;-69
2022/01/11 11:37:27;;;;;;;3.07;2.00;;;;;;;4.87;25.29;100317.66;5072493;28;20116;-69
2022/01/11 11:39:59;;;;;;;2.20;1.77;;;;;;;4.91;25.13;100327.06;5090125;28;20846;-68
2022/01/11 11:42:27;;;;;;;5.50;2.10;;;;;;;4.36;25.51;100288.81;5075974;28;20047;-70
2022/01/11 11:44:52;;;;;;;4.43;2.40;;;;;;;4.02;25.66;100334.06;5064488;28;20043;-70
2022/01/11 11:47:34;;;;;;;7.90;2.10;;;;;;;4.69;25.31;100333.91;5088891;28;20043;-70
2022/01/11 11:50:05;;;;;;;3.63;2.27;;;;;;;4.49;25.35;100337.84;5105179;28;20047;-68